Time;durP1;ratioP1;P1;durP2;ratioP2;P2;SDS_P1;SDS_P2;PMS_P1;PMS_P2;Temp;Humidity;BMP_temperature;BMP_pressure;BME280_temperature;BME280_humidity;BME280_pressure;Samples;Min_cycle;Max_cycle;Signal;HPM_P1;HPM_P2
2023/03/23 00:00:43;;;;;;;;;;;;;;;;;;5092859;28;1261;-72
2023/03/23 00:03:08;;;;;;;;;;;;;;;;;;5076655;28;1306;-72
2023/03/23 00:05:36;;;;;;;;;;;;;;;;;;5093037;28;1166;-72
2023/03/23 00:08:02;;;;;;;;;;;;;;;;;;5093329;28;1384;-72
2023/03/23 00:10:32;;;;;;;;;;;;;;;;;;5094759;28;817;-72
2023/03/23 00:13:02;;;;;;;;;;;;;;;;;;5093065;28;1938;-72
2023/03/23 00:15:32;;;;;;;;;;;;;;;;;;5094901;28;1031;-71
2023/03/23 00:18:02;;;;;;;;;;;;;;;;;;5094835;28;939;-71
2023/03/23 00:20:37;;;;;;;;;;;;;;;;;;5098904;28;1206;-71
2023/03/23 00:23:03;;;;;;;;;;;;;;;;;;5098682;28;1305;-73
2023/03/23 00:25:29;;;;;;;;;;;;;;;;;;5100379;28;899;-72
2023/03/23 00:27:54;;;;;;;;;;;;;;;;;;5098537;28;1170;-71
2023/03/23 00:30:19;;;;;;;;;;;;;;;;;;5099605;28;884;-71
2023/03/23 00:32:45;;;;;;;;;;;;;;;;;;5099633;28;1913;-71
2023/03/23 00:35:10;;;;;;;;;;;;;;;;;;5100514;28;907;-72
2023/03/23 00:37:35;;;;;;;;;;;;;;;;;;5100164;28;911;-71
2023/03/23 00:40:05;;;;;;;;;;;;;;;;;;5098715;28;1186;-72
2023/03/23 00:42:36;;;;;;;;;;;;;;;;;;5099556;28;1194;-71
2023/03/23 00:45:03;;;;;;;;;;;;;;;;;;5106247;28;1462;-72
2023/03/23 00:47:30;;;;;;;;;;;;;;;;;;5114702;28;1166;-72
2023/03/23 00:49:58;;;;;;;;;;;;;;;;;;5102339;28;1073;-72
2023/03/23 00:52:23;;;;;;;;;;;;;;;;;;5106536;28;1206;-71
2023/03/23 00:54:49;;;;;;;;;;;;;;;;;;5087192;28;1910;-71
2023/03/23 00:57:14;;;;;;;;;;;;;;;;;;5102626;28;1168;-71
2023/03/23 00:59:39;;;;;;;;;;;;;;;;;;5099294;28;840;-71
2023/03/23 01:02:05;;;;;;;;;;;;;;;;;;5098955;28;864;-71
2023/03/23 01:04:31;;;;;;;;;;;;;;;;;;5098479;28;840;-72
2023/03/23 01:06:57;;;;;;;;;;;;;;;;;;5081449;28;1179;-72
2023/03/23 01:09:22;;;;;;;;;;;;;;;;;;5096859;28;1011;-72
2023/03/23 01:11:48;;;;;;;;;;;;;;;;;;5093110;28;869;-71
2023/03/23 01:14:14;;;;;;;;;;;;;;;;;;5093907;28;1968;-72
2023/03/23 01:16:40;;;;;;;;;;;;;;;;;;5092425;28;873;-72
2023/03/23 01:19:05;;;;;;;;;;;;;;;;;;5093352;28;900;-72
2023/03/23 01:21:30;;;;;;;;;;;;;;;;;;5075183;28;1420;-72
2023/03/23 01:23:56;;;;;;;;;;;;;;;;;;5091835;28;1213;-72
2023/03/23 01:26:22;;;;;;;;;;;;;;;;;;5093491;28;845;-72
2023/03/23 01:28:48;;;;;;;;;;;;;;;;;;5093255;28;979;-73
2023/03/23 01:31:15;;;;;;;;;;;;;;;;;;5092076;28;1158;-73
2023/03/23 01:33:41;;;;;;;;;;;;;;;;;;5091752;28;1968;-73
2023/03/23 01:36:10;;;;;;;;;;;;;;;;;;5093269;28;900;-72
2023/03/23 01:38:36;;;;;;;;;;;;;;;;;;5091874;28;1294;-72
2023/03/23 01:41:02;;;;;;;;;;;;;;;;;;5091749;28;1350;-72
2023/03/23 01:43:28;;;;;;;;;;;;;;;;;;5092504;28;1006;-72
2023/03/23 01:45:53;;;;;;;;;;;;;;;;;;5092197;28;907;-72
2023/03/23 01:48:22;;;;;;;;;;;;;;;;;;5093192;28;962;-72
2023/03/23 01:51:10;;;;;;;;;;;;;;;;;;5092913;28;904;-72
2023/03/23 01:53:42;;;;;;;;;;;;;;;;;;5087011;28;1917;-73
2023/03/23 01:56:11;;;;;;;;;;;;;;;;;;5091332;28;1202;-71
2023/03/23 01:58:37;;;;;;;;;;;;;;;;;;5091688;28;1190;-72
2023/03/23 02:01:04;;;;;;;;;;;;;;;;;;5091668;28;1340;-72
2023/03/23 02:03:32;;;;;;;;;;;;;;;;;;5092614;28;907;-72
2023/03/23 02:06:02;;;;;;;;;;;;;;;;;;5091139;28;1170;-71
2023/03/23 02:08:28;;;;;;;;;;;;;;;;;;5091379;28;1201;-72
2023/03/23 02:10:55;;;;;;;;;;;;;;;;;;5092889;28;970;-72
2023/03/23 02:13:20;;;;;;;;;;;;;;;;;;5091230;28;1893;-72
2023/03/23 02:15:46;;;;;;;;;;;;;;;;;;5093286;28;966;-72
2023/03/23 02:18:17;;;;;;;;;;;;;;;;;;5093153;28;836;-72
2023/03/23 02:20:48;;;;;;;;;;;;;;;;;;5091495;28;1182;-72
2023/03/23 02:23:35;;;;;;;;;;;;;;;;;;5092971;28;999;-72
2023/03/23 02:26:05;;;;;;;;;;;;;;;;;;5084935;28;1400;-72
2023/03/23 02:28:49;;;;;;;;;;;;;;;;;;5092757;28;854;-72
2023/03/23 02:31:16;;;;;;;;;;;;;;;;;;5091135;28;1297;-72
2023/03/23 02:33:51;;;;;;;;;;;;;;;;;;5090974;28;1926;-72
2023/03/23 02:36:29;;;;;;;;;;;;;;;;;;5092237;28;943;-72
2023/03/23 02:39:03;;;;;;;;;;;;;;;;;;5090635;28;1178;-72
2023/03/23 02:41:31;;;;;;;;;;;;;;;;;;5091850;28;919;-72
2023/03/23 02:44:02;;;;;;;;;;;;;;;;;;5092139;28;884;-72
2023/03/23 02:46:28;;;;;;;;;;;;;;;;;;5091987;28;1053;-72
2023/03/23 02:48:56;;;;;;;;;;;;;;;;;;5090192;28;1419;-72
2023/03/23 02:51:22;;;;;;;;;;;;;;;;;;5090654;28;1159;-72
2023/03/23 02:53:50;;;;;;;;;;;;;;;;;;5090184;28;1918;-72
2023/03/23 02:56:16;;;;;;;;;;;;;;;;;;5094963;28;852;-72
2023/03/23 02:58:41;;;;;;;;;;;;;;;;;;5095936;28;950;-71
2023/03/23 03:01:33;;;;;;;;;;;;;;;;;;5095754;28;845;-71
2023/03/23 03:04:00;;;;;;;;;;;;;;;;;;5078816;28;1205;-71
2023/03/23 03:06:32;;;;;;;;;;;;;;;;;;5094612;28;1174;-72
2023/03/23 03:09:01;;;;;;;;;;;;;;;;;;5094216;28;1201;-72
2023/03/23 03:11:26;;;;;;;;;;;;;;;;;;5096133;28;914;-71
2023/03/23 03:13:52;;;;;;;;;;;;;;;;;;5094175;28;1922;-71
2023/03/23 03:16:29;;;;;;;;;;;;;;;;;;5094003;28;1171;-71
2023/03/23 03:19:01;;;;;;;;;;;;;;;;;;5095199;28;963;-71
2023/03/23 03:21:28;;;;;;;;;;;;;;;;;;5094114;28;1294;-72
2023/03/23 03:23:55;;;;;;;;;;;;;;;;;;5095507;28;849;-72
2023/03/23 03:26:26;;;;;;;;;;;;;;;;;;5095510;28;872;-71
2023/03/23 03:28:52;;;;;;;;;;;;;;;;;;5093746;28;1320;-71
2023/03/23 03:31:19;;;;;;;;;;;;;;;;;;5093879;28;809;-71
2023/03/23 03:33:45;;;;;;;;;;;;;;;;;;5093664;28;1910;-71
2023/03/23 03:36:15;;;;;;;;;;;;;;;;;;5094168;28;896;-71
2023/03/23 03:38:44;;;;;;;;;;;;;;;;;;5095315;28;825;-71
2023/03/23 03:41:10;;;;;;;;;;;;;;;;;;5093893;28;1185;-71
2023/03/23 03:43:35;;;;;;;;;;;;;;;;;;5095698;28;812;-71
2023/03/23 03:46:01;;;;;;;;;;;;;;;;;;5077111;28;1220;-71
2023/03/23 03:48:26;;;;;;;;;;;;;;;;;;5093813;28;1100;-71
2023/03/23 03:50:52;;;;;;;;;;;;;;;;;;5094925;28;990;-71
2023/03/23 03:53:17;;;;;;;;;;;;;;;;;;5076686;28;1921;-72
2023/03/23 03:55:45;;;;;;;;;;;;;;;;;;5093483;28;1317;-71
2023/03/23 03:58:11;;;;;;;;;;;;;;;;;;5093392;28;1265;-71
2023/03/23 04:00:37;;;;;;;;;;;;;;;;;;5093817;28;892;-71
2023/03/23 04:03:02;;;;;;;;;;;;;;;;;;5094024;28;1124;-71
2023/03/23 04:05:28;;;;;;;;;;;;;;;;;;5094077;28;808;-72
2023/03/23 04:07:54;;;;;;;;;;;;;;;;;;5093197;28;1244;-72
2023/03/23 04:10:21;;;;;;;;;;;;;;;;;;5094784;28;970;-72
2023/03/23 04:12:46;;;;;;;;;;;;;;;;;;5094372;28;1909;-71
2023/03/23 04:15:11;;;;;;;;;;;;;;;;;;5093167;28;1253;-72
2023/03/23 04:17:37;;;;;;;;;;;;;;;;;;5094372;28;879;-71
2023/03/23 04:20:11;;;;;;;;;;;;;;;;;;5094537;28;903;-71
2023/03/23 04:22:36;;;;;;;;;;;;;;;;;;5094437;28;825;-71
2023/03/23 04:25:05;;;;;;;;;;;;;;;;;;5093002;28;1355;-71
2023/03/23 04:27:31;;;;;;;;;;;;;;;;;;5094106;28;844;-71
2023/03/23 04:29:57;;;;;;;;;;;;;;;;;;5092797;28;813;-72
2023/03/23 04:32:24;;;;;;;;;;;;;;;;;;5093697;28;908;-71
2023/03/23 04:34:49;;;;;;;;;;;;;;;;;;5091910;28;1960;-71
2023/03/23 04:37:15;;;;;;;;;;;;;;;;;;5093862;28;872;-71
2023/03/23 04:39:41;;;;;;;;;;;;;;;;;;5092329;28;889;-71
2023/03/23 04:42:07;;;;;;;;;;;;;;;;;;5093904;28;994;-71
2023/03/23 04:44:32;;;;;;;;;;;;;;;;;;5094465;28;773;-71
2023/03/23 04:46:57;;;;;;;;;;;;;;;;;;5092286;28;1253;-71
2023/03/23 04:49:23;;;;;;;;;;;;;;;;;;5092219;28;1158;-71
2023/03/23 04:51:50;;;;;;;;;;;;;;;;;;5075718;28;1397;-71
2023/03/23 04:54:15;;;;;;;;;;;;;;;;;;5092818;28;1910;-71
2023/03/23 04:56:41;;;;;;;;;;;;;;;;;;5092727;28;1202;-71
2023/03/23 04:59:07;;;;;;;;;;;;;;;;;;5093909;28;809;-71
2023/03/23 05:01:33;;;;;;;;;;;;;;;;;;5092231;28;1177;-70
2023/03/23 05:04:00;;;;;;;;;;;;;;;;;;5093865;28;836;-71
2023/03/23 05:06:25;;;;;;;;;;;;;;;;;;5092244;28;1154;-71
2023/03/23 05:08:51;;;;;;;;;;;;;;;;;;5093737;28;856;-71
2023/03/23 05:11:16;;;;;;;;;;;;;;;;;;5075409;28;1125;-71
2023/03/23 05:13:43;;;;;;;;;;;;;;;;;;5093127;28;1917;-71
2023/03/23 05:16:09;;;;;;;;;;;;;;;;;;5073996;28;1325;-71
2023/03/23 05:18:35;;;;;;;;;;;;;;;;;;5092159;28;861;-71
2023/03/23 05:21:01;;;;;;;;;;;;;;;;;;5091839;28;1191;-71
2023/03/23 05:23:26;;;;;;;;;;;;;;;;;;5091611;28;1178;-71
2023/03/23 05:25:55;;;;;;;;;;;;;;;;;;5092685;28;877;-71
2023/03/23 05:28:21;;;;;;;;;;;;;;;;;;5092857;28;867;-71
2023/03/23 05:30:47;;;;;;;;;;;;;;;;;;5091728;28;825;-71
2023/03/23 05:33:12;;;;;;;;;;;;;;;;;;5092733;28;1901;-71
2023/03/23 05:35:38;;;;;;;;;;;;;;;;;;5074681;28;1200;-71
2023/03/23 05:38:04;;;;;;;;;;;;;;;;;;5092137;28;1186;-71
2023/03/23 05:40:29;;;;;;;;;;;;;;;;;;5074700;28;1295;-71
2023/03/23 05:42:58;;;;;;;;;;;;;;;;;;5091527;28;836;-71
2023/03/23 05:45:24;;;;;;;;;;;;;;;;;;5091676;28;1320;-72
2023/03/23 05:47:49;;;;;;;;;;;;;;;;;;5092851;28;819;-71
2023/03/23 05:50:15;;;;;;;;;;;;;;;;;;5092402;28;883;-71
2023/03/23 05:52:41;;;;;;;;;;;;;;;;;;5091245;28;1417;-72
2023/03/23 05:55:07;;;;;;;;;;;;;;;;;;5091588;28;1910;-72
2023/03/23 05:57:32;;;;;;;;;;;;;;;;;;5091536;28;1317;-72
2023/03/23 05:59:58;;;;;;;;;;;;;;;;;;5092607;28;824;-72
2023/03/23 06:02:24;;;;;;;;;;;;;;;;;;5092398;28;817;-72
2023/03/23 06:04:50;;;;;;;;;;;;;;;;;;5091357;28;1217;-72
2023/03/23 06:07:15;;;;;;;;;;;;;;;;;;5091236;28;1046;-72
2023/03/23 06:09:41;;;;;;;;;;;;;;;;;;5091048;28;810;-72
2023/03/23 06:12:07;;;;;;;;;;;;;;;;;;5091289;28;1150;-72
2023/03/23 06:14:33;;;;;;;;;;;;;;;;;;5091283;28;1958;-71
2023/03/23 06:16:58;;;;;;;;;;;;;;;;;;5091063;28;872;-71
2023/03/23 06:19:26;;;;;;;;;;;;;;;;;;5093002;28;919;-72
2023/03/23 06:21:51;;;;;;;;;;;;;;;;;;5091105;28;1245;-71
2023/03/23 06:24:17;;;;;;;;;;;;;;;;;;5092567;28;887;-71
2023/03/23 06:26:43;;;;;;;;;;;;;;;;;;5091110;28;966;-72
2023/03/23 06:29:12;;;;;;;;;;;;;;;;;;5075005;28;1293;-72
2023/03/23 06:31:39;;;;;;;;;;;;;;;;;;5090823;28;1360;-71
2023/03/23 06:34:04;;;;;;;;;;;;;;;;;;5092784;28;1913;-71
2023/03/23 06:36:31;;;;;;;;;;;;;;;;;;5090999;28;824;-72
2023/03/23 06:38:57;;;;;;;;;;;;;;;;;;5090729;28;1227;-72
2023/03/23 06:41:22;;;;;;;;;;;;;;;;;;5104066;28;1188;-72
2023/03/23 06:43:47;;;;;;;;;;;;;;;;;;5096436;28;1289;-72
2023/03/23 06:46:13;;;;;;;;;;;;;;;;;;5099489;28;1376;-71
2023/03/23 06:48:38;;;;;;;;;;;;;;;;;;5074856;28;1427;-71
2023/03/23 06:51:04;;;;;;;;;;;;;;;;;;5101031;28;1179;-71
2023/03/23 06:53:29;;;;;;;;;;;;;;;;;;5101154;28;1918;-71
2023/03/23 06:55:55;;;;;;;;;;;;;;;;;;5105763;28;1207;-72
2023/03/23 06:58:21;;;;;;;;;;;;;;;;;;5111276;28;1283;-72
2023/03/23 07:00:46;;;;;;;;;;;;;;;;;;5112432;28;872;-73
2023/03/23 07:03:12;;;;;;;;;;;;;;;;;;5111455;28;1197;-71
2023/03/23 07:05:37;;;;;;;;;;;;;;;;;;5111343;28;1145;-71
2023/03/23 07:08:03;;;;;;;;;;;;;;;;;;5111856;28;1169;-71
2023/03/23 07:10:28;;;;;;;;;;;;;;;;;;5110793;28;1107;-71
2023/03/23 07:12:54;;;;;;;;;;;;;;;;;;5110472;28;1958;-71
2023/03/23 07:15:19;;;;;;;;;;;;;;;;;;5112483;28;975;-71
2023/03/23 07:17:45;;;;;;;;;;;;;;;;;;5110558;28;1217;-71
2023/03/23 07:20:11;;;;;;;;;;;;;;;;;;5094345;28;1186;-71
2023/03/23 07:22:38;;;;;;;;;;;;;;;;;;5110698;28;1268;-70
2023/03/23 07:25:04;;;;;;;;;;;;;;;;;;5110867;28;1214;-70
2023/03/23 07:27:29;;;;;;;;;;;;;;;;;;5110690;28;1628;-70
2023/03/23 07:29:54;;;;;;;;;;;;;;;;;;5093936;28;1396;-70
2023/03/23 07:32:20;;;;;;;;;;;;;;;;;;5112394;28;1034;-70
2023/03/23 07:34:45;;;;;;;;;;;;;;;;;;5110426;28;1905;-70
2023/03/23 07:37:11;;;;;;;;;;;;;;;;;;5110982;28;1151;-70
2023/03/23 07:39:37;;;;;;;;;;;;;;;;;;5110990;28;1438;-70
2023/03/23 07:42:02;;;;;;;;;;;;;;;;;;5114563;28;1240;-70
2023/03/23 07:44:27;;;;;;;;;;;;;;;;;;5097537;28;1182;-70
2023/03/23 07:46:53;;;;;;;;;;;;;;;;;;5116033;28;1153;-70
2023/03/23 07:49:18;;;;;;;;;;;;;;;;;;5115231;28;892;-70
2023/03/23 07:51:44;;;;;;;;;;;;;;;;;;5115555;28;907;-70
2023/03/23 07:54:10;;;;;;;;;;;;;;;;;;5115817;28;1952;-70
2023/03/23 07:56:36;;;;;;;;;;;;;;;;;;5115867;28;1103;-70
2023/03/23 07:59:04;;;;;;;;;;;;;;;;;;5116226;28;824;-70
2023/03/23 08:01:30;;;;;;;;;;;;;;;;;;5111783;28;1170;-70
2023/03/23 08:03:57;;;;;;;;;;;;;;;;;;5104337;28;1195;-70
2023/03/23 08:06:23;;;;;;;;;;;;;;;;;;5085710;28;1366;-71
2023/03/23 08:08:49;;;;;;;;;;;;;;;;;;5101498;28;1172;-71
2023/03/23 08:11:15;;;;;;;;;;;;;;;;;;5104454;28;1258;-71
2023/03/23 08:13:41;;;;;;;;;;;;;;;;;;5103975;28;1970;-70
2023/03/23 08:16:09;;;;;;;;;;;;;;;;;;5101030;28;1213;-70
2023/03/23 08:18:34;;;;;;;;;;;;;;;;;;5102322;28;1313;-72
2023/03/23 08:21:00;;;;;;;;;;;;;;;;;;5104198;28;1296;-72
2023/03/23 08:23:25;;;;;;;;;;;;;;;;;;5089842;28;1211;-72
2023/03/23 08:25:50;;;;;;;;;;;;;;;;;;5098457;28;1239;-71
2023/03/23 08:28:15;;;;;;;;;;;;;;;;;;5108865;28;1143;-72
2023/03/23 08:30:41;;;;;;;;;;;;;;;;;;5097704;28;1302;-72
2023/03/23 08:33:07;;;;;;;;;;;;;;;;;;5099357;28;1972;-73
2023/03/23 08:35:33;;;;;;;;;;;;;;;;;;5078879;28;1143;-72
2023/03/23 08:37:58;;;;;;;;;;;;;;;;;;5087566;28;1215;-72
2023/03/23 08:40:24;;;;;;;;;;;;;;;;;;5077435;28;1436;-72
2023/03/23 08:42:50;;;;;;;;;;;;;;;;;;5071506;28;1257;-72
2023/03/23 08:45:17;;;;;;;;;;;;;;;;;;5081409;28;1207;-72
2023/03/23 08:47:44;;;;;;;;;;;;;;;;;;5084910;28;1076;-72
2023/03/23 08:50:11;;;;;;;;;;;;;;;;;;5084309;28;1340;-72
2023/03/23 08:52:37;;;;;;;;;;;;;;;;;;5079376;28;1310;-71
2023/03/23 08:55:03;;;;;;;;;;;;;;;;;;5076763;28;1921;-72
2023/03/23 08:57:29;;;;;;;;;;;;;;;;;;5077262;28;1234;-71
2023/03/23 08:59:59;;;;;;;;;;;;;;;;;;5082158;28;1029;-72
2023/03/23 09:02:25;;;;;;;;;;;;;;;;;;5088465;28;1353;-72
2023/03/23 09:04:52;;;;;;;;;;;;;;;;;;5061959;28;1210;-72
2023/03/23 09:07:18;;;;;;;;;;;;;;;;;;5079239;28;1183;-72
2023/03/23 09:09:43;;;;;;;;;;;;;;;;;;5085883;28;1213;-72
2023/03/23 09:12:09;;;;;;;;;;;;;;;;;;5078533;28;1167;-71
2023/03/23 09:14:35;;;;;;;;;;;;;;;;;;5089260;28;1981;-72
2023/03/23 09:17:02;;;;;;;;;;;;;;;;;;5079103;28;1225;-72
2023/03/23 09:19:28;;;;;;;;;;;;;;;;;;5091757;28;1199;-72
2023/03/23 09:21:54;;;;;;;;;;;;;;;;;;5083726;28;1399;-72
2023/03/23 09:24:19;;;;;;;;;;;;;;;;;;5076742;28;1140;-72
2023/03/23 09:26:45;;;;;;;;;;;;;;;;;;5077374;28;1172;-72
2023/03/23 09:29:11;;;;;;;;;;;;;;;;;;5077830;28;1159;-71
2023/03/23 09:31:38;;;;;;;;;;;;;;;;;;5079053;28;1128;-72
2023/03/23 09:34:03;;;;;;;;;;;;;;;;;;5081296;28;1981;-72
2023/03/23 09:36:31;;;;;;;;;;;;;;;;;;5088462;28;1210;-72
2023/03/23 09:38:57;;;;;;;;;;;;;;;;;;5082152;28;1302;-72
2023/03/23 09:41:22;;;;;;;;;;;;;;;;;;5099679;28;1210;-71
2023/03/23 09:44:01;;;;;;;;;;;;;;;;;;5100819;28;1167;-71
2023/03/23 09:46:45;;;;;;;;;;;;;;;;;;5094654;28;1269;-71
2023/03/23 09:49:14;;;;;;;;;;;;;;;;;;5105602;28;1135;-72
2023/03/23 09:51:52;;;;;;;;;;;;;;;;;;5106734;28;1175;-72
2023/03/23 09:54:34;;;;;;;;;;;;;;;;;;5093902;28;1913;-71
2023/03/23 09:57:00;;;;;;;;;;;;;;;;;;5095250;28;1152;-72
2023/03/23 09:59:36;;;;;;;;;;;;;;;;;;5100560;28;1281;-71
2023/03/23 10:02:14;;;;;;;;;;;;;;;;;;5093160;28;1196;-71
2023/03/23 10:04:51;;;;;;;;;;;;;;;;;;5105423;28;1230;-72
2023/03/23 10:07:18;;;;;;;;;;;;;;;;;;5098895;28;1451;-72
2023/03/23 10:09:45;;;;;;;;;;;;;;;;;;5102127;28;1211;-72
2023/03/23 10:12:24;;;;;;;;;;;;;;;;;;5101782;28;1230;-71
2023/03/23 10:14:57;;;;;;;;;;;;;;;;;;5094325;28;1917;-71
2023/03/23 10:17:27;;;;;;;;;;;;;;;;;;5098924;28;1347;-72
2023/03/23 10:19:52;;;;;;;;;;;;;;;;;;5098816;28;1056;-72
2023/03/23 10:22:21;;;;;;;;;;;;;;;;;;5092470;28;1370;-72
2023/03/23 10:24:50;;;;;;;;;;;;;;;;;;5107682;28;1371;-72
2023/03/23 10:27:19;;;;;;;;;;;;;;;;;;5087781;28;1421;-72
2023/03/23 10:29:56;;;;;;;;;;;;;;;;;;5098736;28;1231;-71
2023/03/23 10:32:37;;;;;;;;;;;;;;;;;;5098002;28;1281;-72
2023/03/23 10:35:05;;;;;;;;;;;;;;;;;;5096960;28;1898;-72
2023/03/23 10:37:39;;;;;;;;;;;;;;;;;;5108811;28;1187;-71
2023/03/23 10:40:09;;;;;;;;;;;;;;;;;;5103544;28;1380;-71
2023/03/23 10:42:37;;;;;;;;;;;;;;;;;;5102169;28;1281;-72
2023/03/23 10:45:15;;;;;;;;;;;;;;;;;;5111426;28;1260;-71
2023/03/23 10:47:43;;;;;;;;;;;;;;;;;;5097459;28;1150;-72
2023/03/23 10:50:15;;;;;;;;;;;;;;;;;;5107513;28;1231;-71
2023/03/23 10:52:41;;;;;;;;;;;;;;;;;;5115129;28;1265;-71
2023/03/23 10:55:14;;;;;;;;;;;;;;;;;;5114254;28;1981;-71
2023/03/23 10:57:41;;;;;;;;;;;;;;;;;;5115543;28;877;-71
2023/03/23 11:00:18;;;;;;;;;;;;;;;;;;5112344;28;1217;-71
2023/03/23 11:02:45;;;;;;;;;;;;;;;;;;5102653;28;1062;-72
2023/03/23 11:05:16;;;;;;;;;;;;;;;;;;5103754;28;1292;-72
2023/03/23 11:07:47;;;;;;;;;;;;;;;;;;5108129;28;1191;-73
2023/03/23 11:10:22;;;;;;;;;;;;;;;;;;5106993;28;1261;-72
2023/03/23 11:12:47;;;;;;;;;;;;;;;;;;5103353;28;1104;-72
2023/03/23 11:15:27;;;;;;;;;;;;;;;;;;5110698;28;1894;-71
2023/03/23 11:18:00;;;;;;;;;;;;;;;;;;5110310;28;1219;-72
2023/03/23 11:20:26;;;;;;;;;;;;;;;;;;5107541;28;1270;-72
2023/03/23 11:22:52;;;;;;;;;;;;;;;;;;5098473;28;1182;-72
2023/03/23 11:25:18;;;;;;;;;;;;;;;;;;5101802;28;1172;-71
2023/03/23 11:27:43;;;;;;;;;;;;;;;;;;5097877;28;1159;-72
2023/03/23 11:30:20;;;;;;;;;;;;;;;;;;5097384;28;1207;-72
2023/03/23 11:32:46;;;;;;;;;;;;;;;;;;5105468;28;1241;-72
2023/03/23 11:35:16;;;;;;;;;;;;;;;;;;5100070;28;2441;-72
2023/03/23 11:37:52;;;;;;;;;;;;;;;;;;5104107;28;1179;-72
2023/03/23 11:40:23;;;;;;;;;;;;;;;;;;5110102;27;1206;-72
2023/03/23 11:42:48;;;;;;;;;;;;;;;;;;5115415;28;876;-72
2023/03/23 11:45:17;;;;;;;;;;;;;;;;;;5115912;28;890;-72
2023/03/23 11:47:47;;;;;;;;;;;;;;;;;;5115296;28;929;-71
2023/03/23 11:50:15;;;;;;;;;;;;;;;;;;5114628;28;911;-71
2023/03/23 11:52:52;;;;;;;;;;;;;;;;;;5112852;28;1412;-72
2023/03/23 11:55:23;;;;;;;;;;;;;;;;;;5115170;28;1905;-72
2023/03/23 11:57:49;;;;;;;;;;;;;;;;;;5114159;28;1174;-72
2023/03/23 12:00:15;;;;;;;;;;;;;;;;;;5115077;28;843;-72
2023/03/23 12:02:56;;;;;;;;;;;;;;;;;;5113610;28;1408;-72
2023/03/23 12:05:21;;;;;;;;;;;;;;;;;;5113939;28;1177;-72
2023/03/23 12:07:54;;;;;;;;;;;;;;;;;;5113659;28;1146;-72
2023/03/23 12:10:38;;;;;;;;;;;;;;;;;;5114269;28;1268;-72
2023/03/23 12:13:03;;;;;;;;;;;;;;;;;;5114242;28;1902;-72
2023/03/23 12:15:43;;;;;;;;;;;;;;;;;;5115220;28;947;-72
2023/03/23 12:18:22;;;;;;;;;;;;;;;;;;5113489;28;1189;-72
2023/03/23 12:20:48;;;;;;;;;;;;;;;;;;5113388;28;1335;-72
2023/03/23 12:23:37;;;;;;;;;;;;;;;;;;5113466;28;1355;-72
2023/03/23 12:26:18;;;;;;;;;;;;;;;;;;5114580;28;851;-72
2023/03/23 12:28:54;;;;;;;;;;;;;;;;;;5114434;28;887;-71
2023/03/23 12:31:39;;;;;;;;;;;;;;;;;;5114902;28;1002;-73
2023/03/23 12:34:18;;;;;;;;;;;;;;;;;;5112922;28;1903;-72
2023/03/23 12:36:43;;;;;;;;;;;;;;;;;;5114543;28;860;-71
2023/03/23 12:39:28;;;;;;;;;;;;;;;;;;5112986;28;1376;-71
2023/03/23 12:42:07;;;;;;;;;;;;;;;;;;5106396;27;1131;-72
2023/03/23 12:44:42;;;;;;;;;;;;;;;;;;5114570;28;946;-72
2023/03/23 12:47:22;;;;;;;;;;;;;;;;;;5112460;28;1218;-72
2023/03/23 12:50:03;;;;;;;;;;;;;;;;;;5112338;28;1309;-72
2023/03/23 12:52:47;;;;;;;;;;;;;;;;;;5112874;28;1182;-72
2023/03/23 12:55:27;;;;;;;;;;;;;;;;;;5112593;28;1902;-72
2023/03/23 12:57:57;;;;;;;;;;;;;;;;;;5113812;28;939;-72
2023/03/23 13:00:22;;;;;;;;;;;;;;;;;;5106555;28;1270;-72
2023/03/23 13:02:58;;;;;;;;;;;;;;;;;;5107065;28;1104;-72
2023/03/23 13:05:24;;;;;;;;;;;;;;;;;;5114077;28;828;-72
2023/03/23 13:07:55;;;;;;;;;;;;;;;;;;5114212;28;1096;-72
2023/03/23 13:10:22;;;;;;;;;;;;;;;;;;5114284;27;950;-71
2023/03/23 13:12:49;;;;;;;;;;;;;;;;;;5112455;28;1174;-72
2023/03/23 13:15:27;;;;;;;;;;;;;;;;;;5112444;28;1967;-71
2023/03/23 13:17:52;;;;;;;;;;;;;;;;;;5113875;28;809;-72
2023/03/23 13:20:20;;;;;;;;;;;;;;;;;;5114219;28;831;-71
2023/03/23 13:22:48;;;;;;;;;;;;;;;;;;5114272;28;913;-72
2023/03/23 13:25:18;;;;;;;;;;;;;;;;;;5112947;28;1260;-71
2023/03/23 13:27:44;;;;;;;;;;;;;;;;;;5112358;28;1173;-72
2023/03/23 13:30:24;;;;;;;;;;;;;;;;;;5103134;28;1183;-71
2023/03/23 13:32:50;;;;;;;;;;;;;;;;;;5101531;28;1139;-71
2023/03/23 13:35:17;;;;;;;;;;;;;;;;;;5094834;28;1910;-72
2023/03/23 13:37:46;;;;;;;;;;;;;;;;;;5100806;28;1262;-71
2023/03/23 13:40:18;;;;;;;;;;;;;;;;;;5097208;28;1210;-72
2023/03/23 13:42:51;;;;;;;;;;;;;;;;;;5098202;28;1179;-71
2023/03/23 13:45:19;;;;;;;;;;;;;;;;;;5107341;28;1272;-71
2023/03/23 13:47:46;;;;;;;;;;;;;;;;;;5105763;28;1192;-71
2023/03/23 13:50:24;;;;;;;;;;;;;;;;;;5111893;28;899;-71
2023/03/23 13:53:12;;;;;;;;;;;;;;;;;;5113295;28;855;-71
2023/03/23 13:55:49;;;;;;;;;;;;;;;;;;5107459;28;1058;-70
2023/03/23 13:58:22;;;;;;;;;;;;;;;;;;5111363;28;1186;-70
2023/03/23 14:00:50;;;;;;;;;;;;;;;;;;5111612;28;1344;-70
2023/03/23 14:03:24;;;;;;;;;;;;;;;;;;5113236;28;801;-71
2023/03/23 14:05:59;;;;;;;;;;;;;;;;;;5113046;28;575;-70
2023/03/23 14:08:36;;;;;;;;;;;;;;;;;;5111532;28;1166;-71
2023/03/23 14:11:10;;;;;;;;;;;;;;;;;;5111617;28;1304;-71
2023/03/23 14:13:54;;;;;;;;;;;;;;;;;;5113210;28;1909;-71
2023/03/23 14:16:21;;;;;;;;;;;;;;;;;;5112826;28;856;-71
2023/03/23 14:19:09;;;;;;;;;;;;;;;;;;5111432;28;1107;-71
2023/03/23 14:21:38;;;;;;;;;;;;;;;;;;5110933;28;1180;-71
2023/03/23 14:24:06;;;;;;;;;;;;;;;;;;5113220;28;844;-71
2023/03/23 14:26:34;;;;;;;;;;;;;;;;;;5111362;28;1206;-71
2023/03/23 14:28:59;;;;;;;;;;;;;;;;;;5112759;28;872;-71
2023/03/23 14:31:27;;;;;;;;;;;;;;;;;;5111216;28;1218;-71
2023/03/23 14:33:53;;;;;;;;;;;;;;;;;;5112312;28;2314;-71
2023/03/23 14:36:22;;;;;;;;;;;;;;;;;;5112914;28;777;-71
2023/03/23 14:38:55;;;;;;;;;;;;;;;;;;5111403;28;1040;-71
2023/03/23 14:41:21;;;;;;;;;;;;;;;;;;5111396;28;1222;-71
2023/03/23 14:43:48;;;;;;;;;;;;;;;;;;5111442;28;1463;-71
2023/03/23 14:46:13;;;;;;;;;;;;;;;;;;5111371;28;1198;-70
2023/03/23 14:48:39;;;;;;;;;;;;;;;;;;5111279;28;880;-70
2023/03/23 14:51:06;;;;;;;;;;;;;;;;;;5115627;28;975;-70
2023/03/23 14:53:37;;;;;;;;;;;;;;;;;;5115576;28;1967;-71
2023/03/23 14:56:08;;;;;;;;;;;;;;;;;;5117368;28;864;-71
2023/03/23 14:58:34;;;;;;;;;;;;;;;;;;5116956;28;816;-71
2023/03/23 15:01:03;;;;;;;;;;;;;;;;;;5115568;28;1284;-71
2023/03/23 15:03:31;;;;;;;;;;;;;;;;;;5115708;28;1185;-73
2023/03/23 15:06:00;;;;;;;;;;;;;;;;;;5115525;28;1271;-71
2023/03/23 15:08:30;;;;;;;;;;;;;;;;;;5114771;28;1280;-71
2023/03/23 15:11:13;;;;;;;;;;;;;;;;;;5115590;28;1142;-71
2023/03/23 15:13:42;;;;;;;;;;;;;;;;;;5106701;28;1914;-71
2023/03/23 15:16:13;;;;;;;;;;;;;;;;;;5108196;28;1214;-71
2023/03/23 15:18:39;;;;;;;;;;;;;;;;;;5109492;28;1294;-71
2023/03/23 15:21:09;;;;;;;;;;;;;;;;;;5101298;28;1167;-71
2023/03/23 15:23:40;;;;;;;;;;;;;;;;;;5098141;28;1219;-71
2023/03/23 15:26:07;;;;;;;;;;;;;;;;;;5103586;28;1166;-71
2023/03/23 15:28:33;;;;;;;;;;;;;;;;;;5105917;28;1225;-71
2023/03/23 15:31:03;;;;;;;;;;;;;;;;;;5110113;28;1233;-72
2023/03/23 15:33:39;;;;;;;;;;;;;;;;;;5108456;28;1888;-71
2023/03/23 15:36:16;;;;;;;;;;;;;;;;;;5101697;28;1111;-71
2023/03/23 15:38:43;;;;;;;;;;;;;;;;;;5095164;28;844;-71
2023/03/23 15:41:23;;;;;;;;;;;;;;;;;;5093332;28;1741;-71
2023/03/23 15:43:53;;;;;;;;;;;;;;;;;;5100524;28;1364;-71
2023/03/23 15:46:19;;;;;;;;;;;;;;;;;;5099933;28;1407;-72
2023/03/23 15:49:10;;;;;;;;;;;;;;;;;;5099907;28;1305;-71
2023/03/23 15:51:37;;;;;;;;;;;;;;;;;;5110817;28;1318;-71
2023/03/23 15:54:02;;;;;;;;;;;;;;;;;;5114046;28;1922;-71
2023/03/23 15:56:29;;;;;;;;;;;;;;;;;;5113898;28;1177;-71
2023/03/23 15:58:56;;;;;;;;;;;;;;;;;;5114371;28;1197;-71
2023/03/23 16:01:26;;;;;;;;;;;;;;;;;;5113106;28;1321;-71
2023/03/23 16:03:51;;;;;;;;;;;;;;;;;;5113908;28;1267;-71
2023/03/23 16:06:18;;;;;;;;;;;;;;;;;;5113989;28;1323;-71
2023/03/23 16:08:45;;;;;;;;;;;;;;;;;;5114171;28;1293;-71
2023/03/23 16:11:11;;;;;;;;;;;;;;;;;;5113884;28;1021;-71
2023/03/23 16:13:36;;;;;;;;;;;;;;;;;;5113897;28;1905;-71
2023/03/23 16:16:03;;;;;;;;;;;;;;;;;;5097387;28;1383;-71
2023/03/23 16:18:30;;;;;;;;;;;;;;;;;;5112878;28;852;-71
2023/03/23 16:20:55;;;;;;;;;;;;;;;;;;5112535;28;1253;-71
2023/03/23 16:23:21;;;;;;;;;;;;;;;;;;5115339;28;817;-71
2023/03/23 16:25:46;;;;;;;;;;;;;;;;;;5114803;28;883;-71
2023/03/23 16:28:12;;;;;;;;;;;;;;;;;;5113972;28;1400;-70
2023/03/23 16:30:40;;;;;;;;;;;;;;;;;;5096149;28;1266;-71
2023/03/23 16:33:05;;;;;;;;;;;;;;;;;;5113677;28;990;-71
2023/03/23 16:35:31;;;;;;;;;;;;;;;;;;5112697;28;1993;-72
2023/03/23 16:37:56;;;;;;;;;;;;;;;;;;5113037;28;979;-72
2023/03/23 16:40:21;;;;;;;;;;;;;;;;;;5113400;28;840;-72
2023/03/23 16:42:47;;;;;;;;;;;;;;;;;;5114457;28;660;-72
2023/03/23 16:45:13;;;;;;;;;;;;;;;;;;5114148;28;876;-72
2023/03/23 16:47:39;;;;;;;;;;;;;;;;;;5113969;28;1276;-72
2023/03/23 16:50:05;;;;;;;;;;;;;;;;;;5115127;28;875;-71
2023/03/23 16:52:31;;;;;;;;;;;;;;;;;;5113584;28;1170;-72
2023/03/23 16:54:56;;;;;;;;;;;;;;;;;;5102684;28;1969;-71
2023/03/23 16:57:22;;;;;;;;;;;;;;;;;;5101798;28;1145;-72
2023/03/23 16:59:47;;;;;;;;;;;;;;;;;;5092934;28;1069;-73
2023/03/23 17:02:12;;;;;;;;;;;;;;;;;;5092478;28;1115;-72
2023/03/23 17:04:41;;;;;;;;;;;;;;;;;;5092658;28;904;-72
2023/03/23 17:07:07;;;;;;;;;;;;;;;;;;5094365;28;987;-72
2023/03/23 17:09:32;;;;;;;;;;;;;;;;;;5094023;28;832;-72
2023/03/23 17:11:58;;;;;;;;;;;;;;;;;;5093646;28;848;-72
2023/03/23 17:14:23;;;;;;;;;;;;;;;;;;5090993;28;1902;-72
2023/03/23 17:16:48;;;;;;;;;;;;;;;;;;5092223;28;1201;-72